sensor_id;sensor_type;location;lat;lon;timestamp;temperature;humidity
9973;DHT22;5027;53.560;10.062;2023-05-15T00:00:33;19.40;96.60
9973;DHT22;5027;53.560;10.062;2023-05-15T00:02:59;19.40;97.10
9973;DHT22;5027;53.560;10.062;2023-05-15T00:05:26;19.40;96.70
9973;DHT22;5027;53.560;10.062;2023-05-15T00:07:53;19.40;96.60
9973;DHT22;5027;53.560;10.062;2023-05-15T00:10:19;19.50;96.90
9973;DHT22;5027;53.560;10.062;2023-05-15T00:12:46;19.50;96.70
9973;DHT22;5027;53.560;10.062;2023-05-15T00:15:13;19.50;96.70
9973;DHT22;5027;53.560;10.062;2023-05-15T00:17:39;19.50;96.70
9973;DHT22;5027;53.560;10.062;2023-05-15T00:20:06;19.60;96.70
9973;DHT22;5027;53.560;10.062;2023-05-15T00:22:35;19.50;96.70
9973;DHT22;5027;53.560;10.062;2023-05-15T00:25:02;19.50;96.70
9973;DHT22;5027;53.560;10.062;2023-05-15T00:27:29;19.60;96.70
9973;DHT22;5027;53.560;10.062;2023-05-15T00:29:55;19.60;96.70
9973;DHT22;5027;53.560;10.062;2023-05-15T00:32:22;19.60;96.70
9973;DHT22;5027;53.560;10.062;2023-05-15T00:34:50;19.60;96.80
9973;DHT22;5027;53.560;10.062;2023-05-15T00:37:17;19.60;96.80
9973;DHT22;5027;53.560;10.062;2023-05-15T00:39:43;19.50;96.80
9973;DHT22;5027;53.560;10.062;2023-05-15T00:42:10;19.50;96.90
9973;DHT22;5027;53.560;10.062;2023-05-15T00:44:39;19.50;96.90
9973;DHT22;5027;53.560;10.062;2023-05-15T00:47:07;19.50;96.90
9973;DHT22;5027;53.560;10.062;2023-05-15T00:49:36;19.40;96.70
9973;DHT22;5027;53.560;10.062;2023-05-15T00:52:03;19.40;96.90
9973;DHT22;5027;53.560;10.062;2023-05-15T00:54:33;19.30;97.10
9973;DHT22;5027;53.560;10.062;2023-05-15T00:57:04;19.40;97.00
9973;DHT22;5027;53.560;10.062;2023-05-15T00:59:31;19.30;97.10
9973;DHT22;5027;53.560;10.062;2023-05-15T01:01:59;19.40;97.30
9973;DHT22;5027;53.560;10.062;2023-05-15T01:04:26;19.40;97.30
9973;DHT22;5027;53.560;10.062;2023-05-15T01:06:52;19.40;97.40
9973;DHT22;5027;53.560;10.062;2023-05-15T01:09:20;19.30;97.30
9973;DHT22;5027;53.560;10.062;2023-05-15T01:11:50;19.20;97.20
9973;DHT22;5027;53.560;10.062;2023-05-15T01:14:18;19.20;97.50
9973;DHT22;5027;53.560;10.062;2023-05-15T01:16:45;19.30;97.40
9973;DHT22;5027;53.560;10.062;2023-05-15T01:19:12;19.30;97.50
9973;DHT22;5027;53.560;10.062;2023-05-15T01:27:58;19.20;97.60
9973;DHT22;5027;53.560;10.062;2023-05-15T01:30:33;19.30;97.50
9973;DHT22;5027;53.560;10.062;2023-05-15T01:33:20;19.40;97.50
9973;DHT22;5027;53.560;10.062;2023-05-15T01:36:10;19.30;97.50
9973;DHT22;5027;53.560;10.062;2023-05-15T01:38:43;19.30;97.60
9973;DHT22;5027;53.560;10.062;2023-05-15T01:41:31;19.30;97.60
9973;DHT22;5027;53.560;10.062;2023-05-15T01:44:13;19.20;97.60
9973;DHT22;5027;53.560;10.062;2023-05-15T01:46:44;19.20;97.60
9973;DHT22;5027;53.560;10.062;2023-05-15T01:49:12;19.20;97.70
9973;DHT22;5027;53.560;10.062;2023-05-15T01:51:43;19.20;97.70
9973;DHT22;5027;53.560;10.062;2023-05-15T01:54:11;19.20;97.70
9973;DHT22;5027;53.560;10.062;2023-05-15T01:56:39;19.20;97.60
9973;DHT22;5027;53.560;10.062;2023-05-15T01:59:07;19.20;97.60
9973;DHT22;5027;53.560;10.062;2023-05-15T02:01:35;19.10;97.50
9973;DHT22;5027;53.560;10.062;2023-05-15T02:04:03;19.10;97.70
9973;DHT22;5027;53.560;10.062;2023-05-15T02:06:30;19.10;97.70
9973;DHT22;5027;53.560;10.062;2023-05-15T02:09:00;19.10;97.70
9973;DHT22;5027;53.560;10.062;2023-05-15T02:11:29;19.20;97.60
9973;DHT22;5027;53.560;10.062;2023-05-15T02:13:56;19.20;97.60
9973;DHT22;5027;53.560;10.062;2023-05-15T02:16:23;19.10;97.70
9973;DHT22;5027;53.560;10.062;2023-05-15T02:18:50;19.10;97.70
9973;DHT22;5027;53.560;10.062;2023-05-15T02:21:18;19.10;97.70
9973;DHT22;5027;53.560;10.062;2023-05-15T02:23:45;19.10;97.70
9973;DHT22;5027;53.560;10.062;2023-05-15T02:29:27;19.00;97.60
9973;DHT22;5027;53.560;10.062;2023-05-15T02:35:17;18.90;97.60
9973;DHT22;5027;53.560;10.062;2023-05-15T02:37:52;18.90;97.70
9973;DHT22;5027;53.560;10.062;2023-05-15T02:40:19;18.90;97.70
9973;DHT22;5027;53.560;10.062;2023-05-15T02:42:51;18.90;97.70
9973;DHT22;5027;53.560;10.062;2023-05-15T02:45:19;18.90;97.60
9973;DHT22;5027;53.560;10.062;2023-05-15T02:47:47;18.80;97.50
9973;DHT22;5027;53.560;10.062;2023-05-15T02:50:17;18.80;97.60
9973;DHT22;5027;53.560;10.062;2023-05-15T02:52:44;18.80;97.60
9973;DHT22;5027;53.560;10.062;2023-05-15T02:55:11;18.80;97.70
9973;DHT22;5027;53.560;10.062;2023-05-15T02:57:38;18.80;97.80
9973;DHT22;5027;53.560;10.062;2023-05-15T03:00:05;18.80;97.90
9973;DHT22;5027;53.560;10.062;2023-05-15T03:02:34;18.80;97.80
9973;DHT22;5027;53.560;10.062;2023-05-15T03:05:01;18.80;97.90
9973;DHT22;5027;53.560;10.062;2023-05-15T03:07:28;18.80;97.70
9973;DHT22;5027;53.560;10.062;2023-05-15T03:09:55;18.80;97.80
9973;DHT22;5027;53.560;10.062;2023-05-15T03:12:22;18.70;97.80
9973;DHT22;5027;53.560;10.062;2023-05-15T03:14:48;18.70;97.70
9973;DHT22;5027;53.560;10.062;2023-05-15T03:17:15;18.70;97.70
9973;DHT22;5027;53.560;10.062;2023-05-15T03:19:42;18.70;97.70
9973;DHT22;5027;53.560;10.062;2023-05-15T03:22:09;18.70;97.70
9973;DHT22;5027;53.560;10.062;2023-05-15T03:24:35;18.70;97.70
9973;DHT22;5027;53.560;10.062;2023-05-15T03:27:02;18.70;98.10
9973;DHT22;5027;53.560;10.062;2023-05-15T03:29:30;18.70;97.90
9973;DHT22;5027;53.560;10.062;2023-05-15T03:31:56;18.80;97.90
9973;DHT22;5027;53.560;10.062;2023-05-15T03:34:23;18.80;97.90
9973;DHT22;5027;53.560;10.062;2023-05-15T03:36:50;18.80;97.80
9973;DHT22;5027;53.560;10.062;2023-05-15T03:39:16;18.80;97.60
9973;DHT22;5027;53.560;10.062;2023-05-15T03:41:43;18.70;97.60
9973;DHT22;5027;53.560;10.062;2023-05-15T03:44:10;18.70;97.70
9973;DHT22;5027;53.560;10.062;2023-05-15T03:46:38;18.70;97.90
9973;DHT22;5027;53.560;10.062;2023-05-15T03:49:05;18.70;97.70
9973;DHT22;5027;53.560;10.062;2023-05-15T03:51:33;18.60;97.90
9973;DHT22;5027;53.560;10.062;2023-05-15T03:54:00;18.60;98.00
9973;DHT22;5027;53.560;10.062;2023-05-15T03:56:26;18.60;97.80
9973;DHT22;5027;53.560;10.062;2023-05-15T03:58:53;18.70;97.90
9973;DHT22;5027;53.560;10.062;2023-05-15T04:01:20;18.60;97.90
9973;DHT22;5027;53.560;10.062;2023-05-15T04:03:46;18.70;98.00
9973;DHT22;5027;53.560;10.062;2023-05-15T04:06:13;18.70;97.90
9973;DHT22;5027;53.560;10.062;2023-05-15T04:08:40;18.60;98.00
9973;DHT22;5027;53.560;10.062;2023-05-15T04:11:08;18.60;98.10
9973;DHT22;5027;53.560;10.062;2023-05-15T04:13:35;18.70;98.00
9973;DHT22;5027;53.560;10.062;2023-05-15T04:16:02;18.70;98.00
9973;DHT22;5027;53.560;10.062;2023-05-15T04:18:29;18.70;98.00
9973;DHT22;5027;53.560;10.062;2023-05-15T04:20:56;18.60;98.10
9973;DHT22;5027;53.560;10.062;2023-05-15T04:23:23;18.60;98.20
9973;DHT22;5027;53.560;10.062;2023-05-15T04:25:49;18.60;98.00
9973;DHT22;5027;53.560;10.062;2023-05-15T04:28:19;18.60;98.10
9973;DHT22;5027;53.560;10.062;2023-05-15T04:30:48;18.60;98.10
9973;DHT22;5027;53.560;10.062;2023-05-15T04:33:15;18.60;98.20
9973;DHT22;5027;53.560;10.062;2023-05-15T04:35:42;18.70;98.20
9973;DHT22;5027;53.560;10.062;2023-05-15T04:38:08;18.60;98.20
9973;DHT22;5027;53.560;10.062;2023-05-15T04:40:35;18.60;98.30
9973;DHT22;5027;53.560;10.062;2023-05-15T04:43:02;18.60;98.30
9973;DHT22;5027;53.560;10.062;2023-05-15T04:45:29;18.70;98.30
9973;DHT22;5027;53.560;10.062;2023-05-15T04:47:56;18.70;98.60
9973;DHT22;5027;53.560;10.062;2023-05-15T04:50:23;18.70;98.40
9973;DHT22;5027;53.560;10.062;2023-05-15T04:52:50;18.70;98.50
9973;DHT22;5027;53.560;10.062;2023-05-15T04:55:17;18.70;98.50
9973;DHT22;5027;53.560;10.062;2023-05-15T04:57:45;18.70;98.40
9973;DHT22;5027;53.560;10.062;2023-05-15T05:00:13;18.70;98.40
9973;DHT22;5027;53.560;10.062;2023-05-15T05:02:40;18.70;98.50
9973;DHT22;5027;53.560;10.062;2023-05-15T05:05:08;18.60;98.50
9973;DHT22;5027;53.560;10.062;2023-05-15T05:07:35;18.70;98.60
9973;DHT22;5027;53.560;10.062;2023-05-15T05:10:02;18.70;98.60
9973;DHT22;5027;53.560;10.062;2023-05-15T05:12:29;18.70;98.60
9973;DHT22;5027;53.560;10.062;2023-05-15T05:14:56;18.70;98.70
9973;DHT22;5027;53.560;10.062;2023-05-15T05:17:23;18.70;98.50
9973;DHT22;5027;53.560;10.062;2023-05-15T05:19:49;18.70;98.50
9973;DHT22;5027;53.560;10.062;2023-05-15T05:22:16;18.80;98.50
9973;DHT22;5027;53.560;10.062;2023-05-15T05:24:43;18.80;98.60
9973;DHT22;5027;53.560;10.062;2023-05-15T05:27:09;18.80;98.50
9973;DHT22;5027;53.560;10.062;2023-05-15T05:29:36;18.80;98.30
9973;DHT22;5027;53.560;10.062;2023-05-15T05:32:03;18.80;98.50
9973;DHT22;5027;53.560;10.062;2023-05-15T05:34:30;18.80;98.50
9973;DHT22;5027;53.560;10.062;2023-05-15T05:36:57;18.90;98.40
9973;DHT22;5027;53.560;10.062;2023-05-15T05:39:24;18.90;98.40
9973;DHT22;5027;53.560;10.062;2023-05-15T05:41:50;18.90;98.40
9973;DHT22;5027;53.560;10.062;2023-05-15T05:44:17;18.90;98.60
9973;DHT22;5027;53.560;10.062;2023-05-15T05:46:44;18.90;98.30
9973;DHT22;5027;53.560;10.062;2023-05-15T05:49:11;18.90;98.30
9973;DHT22;5027;53.560;10.062;2023-05-15T05:51:38;19.00;98.40
9973;DHT22;5027;53.560;10.062;2023-05-15T05:54:05;19.00;98.50
9973;DHT22;5027;53.560;10.062;2023-05-15T05:56:32;19.10;98.40
9973;DHT22;5027;53.560;10.062;2023-05-15T05:58:58;19.10;98.20
9973;DHT22;5027;53.560;10.062;2023-05-15T06:01:27;19.10;98.10
9973;DHT22;5027;53.560;10.062;2023-05-15T06:03:54;19.10;98.30
9973;DHT22;5027;53.560;10.062;2023-05-15T06:06:21;19.10;98.00
9973;DHT22;5027;53.560;10.062;2023-05-15T06:08:48;19.10;98.10
9973;DHT22;5027;53.560;10.062;2023-05-15T06:11:14;19.20;98.00
9973;DHT22;5027;53.560;10.062;2023-05-15T06:13:41;19.20;98.10
9973;DHT22;5027;53.560;10.062;2023-05-15T06:16:08;19.20;98.20
9973;DHT22;5027;53.560;10.062;2023-05-15T06:18:35;19.20;98.40
9973;DHT22;5027;53.560;10.062;2023-05-15T06:21:02;19.20;98.60
9973;DHT22;5027;53.560;10.062;2023-05-15T06:23:29;19.20;98.30
9973;DHT22;5027;53.560;10.062;2023-05-15T06:25:55;19.20;98.10
9973;DHT22;5027;53.560;10.062;2023-05-15T06:28:22;19.20;98.10
9973;DHT22;5027;53.560;10.062;2023-05-15T06:30:49;19.30;98.20
9973;DHT22;5027;53.560;10.062;2023-05-15T06:33:15;19.30;98.20
9973;DHT22;5027;53.560;10.062;2023-05-15T06:35:42;19.30;98.10
9973;DHT22;5027;53.560;10.062;2023-05-15T06:38:09;19.40;97.60
9973;DHT22;5027;53.560;10.062;2023-05-15T06:40:36;19.40;97.70
9973;DHT22;5027;53.560;10.062;2023-05-15T06:43:02;19.40;97.60
9973;DHT22;5027;53.560;10.062;2023-05-15T06:45:29;19.50;97.60
9973;DHT22;5027;53.560;10.062;2023-05-15T06:47:56;19.50;98.20
9973;DHT22;5027;53.560;10.062;2023-05-15T06:50:27;19.50;97.90
9973;DHT22;5027;53.560;10.062;2023-05-15T06:52:53;19.60;97.90
9973;DHT22;5027;53.560;10.062;2023-05-15T06:55:20;19.70;97.40
9973;DHT22;5027;53.560;10.062;2023-05-15T06:57:46;19.80;96.90
9973;DHT22;5027;53.560;10.062;2023-05-15T07:00:13;19.80;96.90
9973;DHT22;5027;53.560;10.062;2023-05-15T07:02:40;19.70;96.80
9973;DHT22;5027;53.560;10.062;2023-05-15T07:05:08;19.70;97.20
9973;DHT22;5027;53.560;10.062;2023-05-15T07:07:36;19.80;96.80
9973;DHT22;5027;53.560;10.062;2023-05-15T07:10:03;19.80;96.40
9973;DHT22;5027;53.560;10.062;2023-05-15T07:12:30;19.80;96.20
9973;DHT22;5027;53.560;10.062;2023-05-15T07:14:58;19.80;95.70
9973;DHT22;5027;53.560;10.062;2023-05-15T07:17:25;19.80;95.10
9973;DHT22;5027;53.560;10.062;2023-05-15T07:19:52;19.80;95.90
9973;DHT22;5027;53.560;10.062;2023-05-15T07:22:18;20.00;95.40
9973;DHT22;5027;53.560;10.062;2023-05-15T07:24:45;20.00;95.40
9973;DHT22;5027;53.560;10.062;2023-05-15T07:27:13;20.00;95.20
9973;DHT22;5027;53.560;10.062;2023-05-15T07:29:39;20.00;95.20
9973;DHT22;5027;53.560;10.062;2023-05-15T07:32:06;19.90;94.70
9973;DHT22;5027;53.560;10.062;2023-05-15T07:34:33;20.00;95.30
9973;DHT22;5027;53.560;10.062;2023-05-15T07:37:00;20.10;95.40
9973;DHT22;5027;53.560;10.062;2023-05-15T07:39:26;20.10;95.10
9973;DHT22;5027;53.560;10.062;2023-05-15T07:41:53;20.20;95.90
9973;DHT22;5027;53.560;10.062;2023-05-15T07:44:19;20.20;95.10
9973;DHT22;5027;53.560;10.062;2023-05-15T07:46:46;20.20;97.60
9973;DHT22;5027;53.560;10.062;2023-05-15T07:49:13;20.30;95.80
9973;DHT22;5027;53.560;10.062;2023-05-15T07:51:40;20.10;94.40
9973;DHT22;5027;53.560;10.062;2023-05-15T07:54:06;20.20;94.80
9973;DHT22;5027;53.560;10.062;2023-05-15T07:56:33;20.20;95.60
9973;DHT22;5027;53.560;10.062;2023-05-15T07:59:00;20.20;95.70
9973;DHT22;5027;53.560;10.062;2023-05-15T08:01:27;20.30;99.50
9973;DHT22;5027;53.560;10.062;2023-05-15T08:03:56;20.40;99.40
9973;DHT22;5027;53.560;10.062;2023-05-15T08:06:24;20.40;98.60
9973;DHT22;5027;53.560;10.062;2023-05-15T08:08:50;20.40;99.50
9973;DHT22;5027;53.560;10.062;2023-05-15T08:11:17;20.40;98.70
9973;DHT22;5027;53.560;10.062;2023-05-15T08:13:44;20.30;98.10
9973;DHT22;5027;53.560;10.062;2023-05-15T08:16:11;20.40;97.90
9973;DHT22;5027;53.560;10.062;2023-05-15T08:18:37;20.30;96.20
9973;DHT22;5027;53.560;10.062;2023-05-15T08:21:04;20.40;99.10
9973;DHT22;5027;53.560;10.062;2023-05-15T08:23:31;20.40;99.40
9973;DHT22;5027;53.560;10.062;2023-05-15T08:25:57;20.40;98.90
9973;DHT22;5027;53.560;10.062;2023-05-15T08:28:24;20.40;99.80
9973;DHT22;5027;53.560;10.062;2023-05-15T08:30:51;20.50;99.90
9973;DHT22;5027;53.560;10.062;2023-05-15T08:33:18;20.50;99.90
9973;DHT22;5027;53.560;10.062;2023-05-15T08:35:44;20.50;99.90
9973;DHT22;5027;53.560;10.062;2023-05-15T08:38:11;20.50;99.90
9973;DHT22;5027;53.560;10.062;2023-05-15T08:40:40;20.50;99.90
9973;DHT22;5027;53.560;10.062;2023-05-15T08:43:16;20.50;99.90
9973;DHT22;5027;53.560;10.062;2023-05-15T08:45:43;20.40;99.90
9973;DHT22;5027;53.560;10.062;2023-05-15T08:48:13;20.50;99.90
9973;DHT22;5027;53.560;10.062;2023-05-15T08:50:42;20.50;99.90
9973;DHT22;5027;53.560;10.062;2023-05-15T08:53:11;20.50;99.00
9973;DHT22;5027;53.560;10.062;2023-05-15T08:55:38;20.50;99.90
9973;DHT22;5027;53.560;10.062;2023-05-15T08:58:08;20.50;99.90
9973;DHT22;5027;53.560;10.062;2023-05-15T09:00:34;20.50;99.90
9973;DHT22;5027;53.560;10.062;2023-05-15T09:03:01;20.50;99.90
9973;DHT22;5027;53.560;10.062;2023-05-15T09:05:29;20.50;99.90
9973;DHT22;5027;53.560;10.062;2023-05-15T09:07:56;20.40;97.80
9973;DHT22;5027;53.560;10.062;2023-05-15T09:10:24;20.40;97.10
9973;DHT22;5027;53.560;10.062;2023-05-15T09:12:51;20.50;99.90
9973;DHT22;5027;53.560;10.062;2023-05-15T09:15:19;20.50;99.90
9973;DHT22;5027;53.560;10.062;2023-05-15T09:17:49;20.60;99.90
9973;DHT22;5027;53.560;10.062;2023-05-15T09:22:53;20.50;99.90
9973;DHT22;5027;53.560;10.062;2023-05-15T09:25:39;20.50;99.90
9973;DHT22;5027;53.560;10.062;2023-05-15T09:28:08;20.50;99.60
9973;DHT22;5027;53.560;10.062;2023-05-15T09:30:41;20.50;99.80
9973;DHT22;5027;53.560;10.062;2023-05-15T09:33:08;20.50;99.90
9973;DHT22;5027;53.560;10.062;2023-05-15T09:35:36;20.50;99.90
9973;DHT22;5027;53.560;10.062;2023-05-15T09:38:08;20.50;99.90
9973;DHT22;5027;53.560;10.062;2023-05-15T09:40:35;20.50;99.90
9973;DHT22;5027;53.560;10.062;2023-05-15T09:43:01;20.60;99.90
9973;DHT22;5027;53.560;10.062;2023-05-15T09:45:29;20.60;99.90
9973;DHT22;5027;53.560;10.062;2023-05-15T09:47:58;20.60;99.90
9973;DHT22;5027;53.560;10.062;2023-05-15T09:50:33;20.50;99.90
9973;DHT22;5027;53.560;10.062;2023-05-15T09:53:00;20.50;99.90
9973;DHT22;5027;53.560;10.062;2023-05-15T09:55:27;20.50;99.80
9973;DHT22;5027;53.560;10.062;2023-05-15T10:00:34;20.50;99.90
9973;DHT22;5027;53.560;10.062;2023-05-15T10:03:03;20.50;98.60
9973;DHT22;5027;53.560;10.062;2023-05-15T10:05:30;20.50;99.50
9973;DHT22;5027;53.560;10.062;2023-05-15T10:08:08;20.50;99.90
9973;DHT22;5027;53.560;10.062;2023-05-15T10:10:35;20.60;99.90
9973;DHT22;5027;53.560;10.062;2023-05-15T10:13:02;20.50;99.60
9973;DHT22;5027;53.560;10.062;2023-05-15T10:15:31;20.60;99.90
9973;DHT22;5027;53.560;10.062;2023-05-15T10:17:59;20.60;99.90
9973;DHT22;5027;53.560;10.062;2023-05-15T10:20:26;20.50;99.90
9973;DHT22;5027;53.560;10.062;2023-05-15T10:22:54;20.60;99.90
9973;DHT22;5027;53.560;10.062;2023-05-15T10:25:52;20.60;99.90
9973;DHT22;5027;53.560;10.062;2023-05-15T10:28:21;20.50;99.90
9973;DHT22;5027;53.560;10.062;2023-05-15T10:30:49;20.60;99.90
9973;DHT22;5027;53.560;10.062;2023-05-15T10:33:16;20.60;99.90
9973;DHT22;5027;53.560;10.062;2023-05-15T10:35:44;20.50;99.90
9973;DHT22;5027;53.560;10.062;2023-05-15T10:38:12;20.50;99.90
9973;DHT22;5027;53.560;10.062;2023-05-15T10:40:39;20.50;99.90
9973;DHT22;5027;53.560;10.062;2023-05-15T10:43:08;20.50;99.90
9973;DHT22;5027;53.560;10.062;2023-05-15T10:45:37;20.50;99.90
9973;DHT22;5027;53.560;10.062;2023-05-15T10:48:04;20.60;99.90
9973;DHT22;5027;53.560;10.062;2023-05-15T10:50:35;20.50;99.90
9973;DHT22;5027;53.560;10.062;2023-05-15T10:53:03;20.60;99.90
9973;DHT22;5027;53.560;10.062;2023-05-15T10:55:29;20.60;99.90
9973;DHT22;5027;53.560;10.062;2023-05-15T10:57:56;20.60;99.90
9973;DHT22;5027;53.560;10.062;2023-05-15T11:00:29;20.60;99.90
9973;DHT22;5027;53.560;10.062;2023-05-15T11:02:59;20.50;99.90
9973;DHT22;5027;53.560;10.062;2023-05-15T11:05:26;20.60;99.90
9973;DHT22;5027;53.560;10.062;2023-05-15T11:10:43;20.60;99.90
9973;DHT22;5027;53.560;10.062;2023-05-15T11:13:10;20.50;99.80
9973;DHT22;5027;53.560;10.062;2023-05-15T11:15:45;20.60;99.90
9973;DHT22;5027;53.560;10.062;2023-05-15T11:18:12;20.50;99.90
9973;DHT22;5027;53.560;10.062;2023-05-15T11:20:41;20.50;99.80
9973;DHT22;5027;53.560;10.062;2023-05-15T11:23:08;20.50;99.90
9973;DHT22;5027;53.560;10.062;2023-05-15T11:25:35;20.60;99.90
9973;DHT22;5027;53.560;10.062;2023-05-15T11:28:03;20.50;99.90
9973;DHT22;5027;53.560;10.062;2023-05-15T11:30:36;20.60;99.90
9973;DHT22;5027;53.560;10.062;2023-05-15T11:33:09;20.60;99.90
9973;DHT22;5027;53.560;10.062;2023-05-15T11:35:44;20.50;99.90
9973;DHT22;5027;53.560;10.062;2023-05-15T11:38:21;20.50;99.90
9973;DHT22;5027;53.560;10.062;2023-05-15T11:40:52;20.50;99.90
9973;DHT22;5027;53.560;10.062;2023-05-15T11:43:25;20.50;99.90
9973;DHT22;5027;53.560;10.062;2023-05-15T11:45:58;20.50;99.90
9973;DHT22;5027;53.560;10.062;2023-05-15T11:48:34;20.50;99.90
9973;DHT22;5027;53.560;10.062;2023-05-15T11:51:01;20.50;99.90
9973;DHT22;5027;53.560;10.062;2023-05-15T11:53:29;20.50;99.90
9973;DHT22;5027;53.560;10.062;2023-05-15T11:55:56;20.50;99.90
9973;DHT22;5027;53.560;10.062;2023-05-15T11:58:24;20.50;99.90
9973;DHT22;5027;53.560;10.062;2023-05-15T12:00:52;20.50;99.90
9973;DHT22;5027;53.560;10.062;2023-05-15T12:03:24;20.50;99.90
9973;DHT22;5027;53.560;10.062;2023-05-15T12:05:52;20.50;99.90
9973;DHT22;5027;53.560;10.062;2023-05-15T12:08:35;20.50;99.90
9973;DHT22;5027;53.560;10.062;2023-05-15T12:11:05;20.50;99.90
9973;DHT22;5027;53.560;10.062;2023-05-15T12:13:32;20.50;99.90
9973;DHT22;5027;53.560;10.062;2023-05-15T12:16:01;20.50;99.90
9973;DHT22;5027;53.560;10.062;2023-05-15T12:18:32;20.50;99.90
9973;DHT22;5027;53.560;10.062;2023-05-15T12:20:59;20.50;99.90
9973;DHT22;5027;53.560;10.062;2023-05-15T12:23:26;20.50;99.90
9973;DHT22;5027;53.560;10.062;2023-05-15T12:25:57;20.60;99.90
9973;DHT22;5027;53.560;10.062;2023-05-15T12:28:25;20.60;99.90
9973;DHT22;5027;53.560;10.062;2023-05-15T12:30:53;20.50;99.90
9973;DHT22;5027;53.560;10.062;2023-05-15T12:33:20;20.50;99.90
9973;DHT22;5027;53.560;10.062;2023-05-15T12:35:53;20.50;99.90
9973;DHT22;5027;53.560;10.062;2023-05-15T12:38:24;20.50;99.90
9973;DHT22;5027;53.560;10.062;2023-05-15T12:40:52;20.50;99.90
9973;DHT22;5027;53.560;10.062;2023-05-15T12:43:19;20.60;99.90
9973;DHT22;5027;53.560;10.062;2023-05-15T12:45:54;20.50;99.90
9973;DHT22;5027;53.560;10.062;2023-05-15T12:48:21;20.50;99.90
9973;DHT22;5027;53.560;10.062;2023-05-15T12:50:48;20.60;99.90
9973;DHT22;5027;53.560;10.062;2023-05-15T12:53:15;20.50;99.90
9973;DHT22;5027;53.560;10.062;2023-05-15T12:55:45;20.50;99.90
9973;DHT22;5027;53.560;10.062;2023-05-15T12:58:14;20.50;99.90
9973;DHT22;5027;53.560;10.062;2023-05-15T13:00:41;20.60;99.90
9973;DHT22;5027;53.560;10.062;2023-05-15T13:03:09;20.50;99.90
9973;DHT22;5027;53.560;10.062;2023-05-15T13:05:38;20.50;99.90
9973;DHT22;5027;53.560;10.062;2023-05-15T13:08:05;20.50;99.80
9973;DHT22;5027;53.560;10.062;2023-05-15T13:10:36;20.60;99.90
9973;DHT22;5027;53.560;10.062;2023-05-15T13:13:03;20.60;99.90
9973;DHT22;5027;53.560;10.062;2023-05-15T13:15:35;20.60;99.90
9973;DHT22;5027;53.560;10.062;2023-05-15T13:18:04;20.60;99.90
9973;DHT22;5027;53.560;10.062;2023-05-15T13:20:33;20.60;99.90
9973;DHT22;5027;53.560;10.062;2023-05-15T13:23:01;20.60;99.90
9973;DHT22;5027;53.560;10.062;2023-05-15T13:25:28;20.60;99.90
9973;DHT22;5027;53.560;10.062;2023-05-15T13:27:58;20.60;99.90
9973;DHT22;5027;53.560;10.062;2023-05-15T13:30:27;20.60;99.90
9973;DHT22;5027;53.560;10.062;2023-05-15T13:32:54;20.60;99.90
9973;DHT22;5027;53.560;10.062;2023-05-15T13:35:21;20.60;99.90
9973;DHT22;5027;53.560;10.062;2023-05-15T13:37:48;20.60;99.90
9973;DHT22;5027;53.560;10.062;2023-05-15T13:40:15;20.60;99.90
9973;DHT22;5027;53.560;10.062;2023-05-15T13:42:43;20.60;99.90
9973;DHT22;5027;53.560;10.062;2023-05-15T13:45:14;20.60;99.90
9973;DHT22;5027;53.560;10.062;2023-05-15T13:47:42;20.60;99.90
9973;DHT22;5027;53.560;10.062;2023-05-15T13:50:14;20.60;99.90
9973;DHT22;5027;53.560;10.062;2023-05-15T13:52:42;20.60;99.90
9973;DHT22;5027;53.560;10.062;2023-05-15T13:55:10;20.60;99.90
9973;DHT22;5027;53.560;10.062;2023-05-15T13:57:38;20.60;99.90
9973;DHT22;5027;53.560;10.062;2023-05-15T14:00:09;20.60;99.90
9973;DHT22;5027;53.560;10.062;2023-05-15T14:02:42;20.60;99.90
9973;DHT22;5027;53.560;10.062;2023-05-15T14:05:11;20.60;99.90
9973;DHT22;5027;53.560;10.062;2023-05-15T14:07:39;20.60;99.90
9973;DHT22;5027;53.560;10.062;2023-05-15T14:10:07;20.60;99.90
9973;DHT22;5027;53.560;10.062;2023-05-15T14:12:35;20.60;99.90
9973;DHT22;5027;53.560;10.062;2023-05-15T14:15:02;20.60;99.90
9973;DHT22;5027;53.560;10.062;2023-05-15T14:17:28;20.60;99.90
9973;DHT22;5027;53.560;10.062;2023-05-15T14:19:55;20.70;99.90
9973;DHT22;5027;53.560;10.062;2023-05-15T14:22:22;20.80;99.90
9973;DHT22;5027;53.560;10.062;2023-05-15T14:24:51;20.70;99.90
9973;DHT22;5027;53.560;10.062;2023-05-15T14:27:18;20.70;99.90
9973;DHT22;5027;53.560;10.062;2023-05-15T14:29:45;20.70;99.90
9973;DHT22;5027;53.560;10.062;2023-05-15T14:32:12;20.70;99.90
9973;DHT22;5027;53.560;10.062;2023-05-15T14:34:39;20.70;99.90
9973;DHT22;5027;53.560;10.062;2023-05-15T14:37:06;20.70;99.90
9973;DHT22;5027;53.560;10.062;2023-05-15T14:39:32;20.70;99.90
9973;DHT22;5027;53.560;10.062;2023-05-15T14:41:59;20.70;99.90
9973;DHT22;5027;53.560;10.062;2023-05-15T14:44:26;20.70;99.90
9973;DHT22;5027;53.560;10.062;2023-05-15T14:47:06;20.70;99.90
9973;DHT22;5027;53.560;10.062;2023-05-15T14:49:34;20.80;99.90
9973;DHT22;5027;53.560;10.062;2023-05-15T14:52:01;20.70;99.90
9973;DHT22;5027;53.560;10.062;2023-05-15T14:54:28;20.70;99.90
9973;DHT22;5027;53.560;10.062;2023-05-15T14:56:55;20.70;99.90
9973;DHT22;5027;53.560;10.062;2023-05-15T14:59:24;20.70;99.90
9973;DHT22;5027;53.560;10.062;2023-05-15T15:01:51;20.70;99.90
9973;DHT22;5027;53.560;10.062;2023-05-15T15:04:17;20.70;99.90
9973;DHT22;5027;53.560;10.062;2023-05-15T15:06:46;20.70;99.90
9973;DHT22;5027;53.560;10.062;2023-05-15T15:09:13;20.70;99.90
9973;DHT22;5027;53.560;10.062;2023-05-15T15:11:39;20.70;99.90
9973;DHT22;5027;53.560;10.062;2023-05-15T15:14:06;20.70;99.90
9973;DHT22;5027;53.560;10.062;2023-05-15T15:16:33;20.70;99.90
9973;DHT22;5027;53.560;10.062;2023-05-15T15:18:59;20.70;99.90
9973;DHT22;5027;53.560;10.062;2023-05-15T15:21:26;20.70;99.90
9973;DHT22;5027;53.560;10.062;2023-05-15T15:23:53;20.70;99.90
9973;DHT22;5027;53.560;10.062;2023-05-15T15:26:20;20.80;99.90
9973;DHT22;5027;53.560;10.062;2023-05-15T15:28:47;20.70;99.90
9973;DHT22;5027;53.560;10.062;2023-05-15T15:31:14;20.70;99.90
9973;DHT22;5027;53.560;10.062;2023-05-15T15:33:41;20.70;99.90
9973;DHT22;5027;53.560;10.062;2023-05-15T15:36:07;20.70;99.90
9973;DHT22;5027;53.560;10.062;2023-05-15T15:38:34;20.70;99.90
9973;DHT22;5027;53.560;10.062;2023-05-15T15:41:04;20.70;99.90
9973;DHT22;5027;53.560;10.062;2023-05-15T15:43:31;20.70;99.90
9973;DHT22;5027;53.560;10.062;2023-05-15T15:45:58;20.70;99.90
9973;DHT22;5027;53.560;10.062;2023-05-15T15:48:25;20.70;99.90
9973;DHT22;5027;53.560;10.062;2023-05-15T15:50:51;20.70;99.90
9973;DHT22;5027;53.560;10.062;2023-05-15T15:53:18;20.70;99.90
9973;DHT22;5027;53.560;10.062;2023-05-15T15:55:45;20.70;99.90
9973;DHT22;5027;53.560;10.062;2023-05-15T15:58:13;20.70;99.90
9973;DHT22;5027;53.560;10.062;2023-05-15T16:00:40;20.70;99.90
9973;DHT22;5027;53.560;10.062;2023-05-15T16:03:06;20.70;99.90
9973;DHT22;5027;53.560;10.062;2023-05-15T16:05:33;20.70;99.90
9973;DHT22;5027;53.560;10.062;2023-05-15T16:08:00;20.70;99.90
9973;DHT22;5027;53.560;10.062;2023-05-15T16:10:27;20.70;99.90